sensor_id;sensor_type;location;lat;lon;timestamp;P1;durP1;ratioP1;P2;durP2;ratioP2
41653;SDS011;30790;52.030;7.110;2023-02-03T00:00:08;3.03;;;1.10;;
41653;SDS011;30790;52.030;7.110;2023-02-03T00:02:34;2.30;;;1.13;;
41653;SDS011;30790;52.030;7.110;2023-02-03T00:04:59;4.13;;;1.00;;
41653;SDS011;30790;52.030;7.110;2023-02-03T00:07:24;2.90;;;1.17;;
41653;SDS011;30790;52.030;7.110;2023-02-03T00:09:49;2.53;;;1.40;;
41653;SDS011;30790;52.030;7.110;2023-02-03T00:12:15;5.13;;;1.40;;
41653;SDS011;30790;52.030;7.110;2023-02-03T00:14:40;1.30;;;0.95;;
41653;SDS011;30790;52.030;7.110;2023-02-03T00:17:05;1.83;;;1.20;;
41653;SDS011;30790;52.030;7.110;2023-02-03T00:19:31;4.25;;;1.20;;
41653;SDS011;30790;52.030;7.110;2023-02-03T00:21:56;1.23;;;1.00;;
41653;SDS011;30790;52.030;7.110;2023-02-03T00:24:21;3.10;;;1.10;;
41653;SDS011;30790;52.030;7.110;2023-02-03T00:26:48;1.63;;;0.80;;
41653;SDS011;30790;52.030;7.110;2023-02-03T00:29:13;2.05;;;1.13;;
41653;SDS011;30790;52.030;7.110;2023-02-03T00:31:39;2.08;;;0.90;;
41653;SDS011;30790;52.030;7.110;2023-02-03T00:34:04;2.38;;;1.15;;
41653;SDS011;30790;52.030;7.110;2023-02-03T00:36:29;2.15;;;1.00;;
41653;SDS011;30790;52.030;7.110;2023-02-03T00:38:54;2.75;;;1.15;;
41653;SDS011;30790;52.030;7.110;2023-02-03T00:41:20;3.83;;;1.15;;
41653;SDS011;30790;52.030;7.110;2023-02-03T00:43:46;1.05;;;1.00;;
41653;SDS011;30790;52.030;7.110;2023-02-03T00:46:12;2.05;;;1.45;;
41653;SDS011;30790;52.030;7.110;2023-02-03T00:48:37;2.50;;;1.27;;
41653;SDS011;30790;52.030;7.110;2023-02-03T00:51:03;2.22;;;0.90;;
41653;SDS011;30790;52.030;7.110;2023-02-03T00:53:29;1.88;;;0.95;;
41653;SDS011;30790;52.030;7.110;2023-02-03T00:55:54;2.38;;;1.20;;
41653;SDS011;30790;52.030;7.110;2023-02-03T00:58:19;1.30;;;1.08;;
41653;SDS011;30790;52.030;7.110;2023-02-03T01:00:44;1.83;;;1.05;;
41653;SDS011;30790;52.030;7.110;2023-02-03T01:03:10;1.33;;;0.88;;
41653;SDS011;30790;52.030;7.110;2023-02-03T01:05:35;3.53;;;0.90;;
41653;SDS011;30790;52.030;7.110;2023-02-03T01:08:01;1.10;;;0.90;;
41653;SDS011;30790;52.030;7.110;2023-02-03T01:10:27;1.90;;;0.85;;
41653;SDS011;30790;52.030;7.110;2023-02-03T01:12:53;3.00;;;1.20;;
41653;SDS011;30790;52.030;7.110;2023-02-03T01:15:18;2.30;;;1.17;;
41653;SDS011;30790;52.030;7.110;2023-02-03T01:17:43;3.65;;;1.08;;
41653;SDS011;30790;52.030;7.110;2023-02-03T01:20:09;1.45;;;0.95;;
41653;SDS011;30790;52.030;7.110;2023-02-03T01:22:36;2.85;;;1.05;;
41653;SDS011;30790;52.030;7.110;2023-02-03T01:25:01;1.02;;;0.90;;
41653;SDS011;30790;52.030;7.110;2023-02-03T01:27:27;3.20;;;1.00;;
41653;SDS011;30790;52.030;7.110;2023-02-03T01:29:52;1.58;;;1.00;;
41653;SDS011;30790;52.030;7.110;2023-02-03T01:32:17;1.20;;;0.90;;
41653;SDS011;30790;52.030;7.110;2023-02-03T01:34:43;2.75;;;1.00;;
41653;SDS011;30790;52.030;7.110;2023-02-03T01:37:08;1.95;;;0.88;;
41653;SDS011;30790;52.030;7.110;2023-02-03T01:39:33;0.90;;;0.68;;
41653;SDS011;30790;52.030;7.110;2023-02-03T01:41:58;2.55;;;0.93;;
41653;SDS011;30790;52.030;7.110;2023-02-03T01:44:33;1.75;;;1.00;;
41653;SDS011;30790;52.030;7.110;2023-02-03T01:49:55;1.40;;;0.90;;
41653;SDS011;30790;52.030;7.110;2023-02-03T01:52:24;1.70;;;0.90;;
41653;SDS011;30790;52.030;7.110;2023-02-03T01:54:51;2.08;;;1.20;;
41653;SDS011;30790;52.030;7.110;2023-02-03T01:57:23;1.88;;;1.02;;
41653;SDS011;30790;52.030;7.110;2023-02-03T01:59:51;1.27;;;0.70;;
41653;SDS011;30790;52.030;7.110;2023-02-03T02:02:20;2.22;;;1.20;;
41653;SDS011;30790;52.030;7.110;2023-02-03T02:07:20;1.13;;;1.02;;
41653;SDS011;30790;52.030;7.110;2023-02-03T02:09:47;1.10;;;1.00;;
41653;SDS011;30790;52.030;7.110;2023-02-03T02:12:13;1.25;;;0.90;;
41653;SDS011;30790;52.030;7.110;2023-02-03T02:14:38;1.27;;;0.80;;
41653;SDS011;30790;52.030;7.110;2023-02-03T02:17:05;1.85;;;0.85;;
41653;SDS011;30790;52.030;7.110;2023-02-03T02:25:02;0.85;;;0.63;;
41653;SDS011;30790;52.030;7.110;2023-02-03T02:39:17;2.08;;;0.95;;
41653;SDS011;30790;52.030;7.110;2023-02-03T02:41:52;2.00;;;1.13;;
41653;SDS011;30790;52.030;7.110;2023-02-03T02:44:24;1.45;;;1.05;;
41653;SDS011;30790;52.030;7.110;2023-02-03T02:47:09;1.70;;;0.75;;
41653;SDS011;30790;52.030;7.110;2023-02-03T02:49:45;2.33;;;1.00;;
41653;SDS011;30790;52.030;7.110;2023-02-03T02:52:18;3.22;;;1.00;;
41653;SDS011;30790;52.030;7.110;2023-02-03T02:54:50;1.80;;;1.00;;
41653;SDS011;30790;52.030;7.110;2023-02-03T02:57:19;0.80;;;0.73;;
41653;SDS011;30790;52.030;7.110;2023-02-03T02:59:48;1.77;;;0.93;;
41653;SDS011;30790;52.030;7.110;2023-02-03T03:02:14;1.08;;;0.77;;
41653;SDS011;30790;52.030;7.110;2023-02-03T03:04:39;1.00;;;0.90;;
41653;SDS011;30790;52.030;7.110;2023-02-03T03:07:07;1.98;;;0.80;;
41653;SDS011;30790;52.030;7.110;2023-02-03T03:09:45;1.00;;;0.73;;
41653;SDS011;30790;52.030;7.110;2023-02-03T03:12:15;1.92;;;1.00;;
41653;SDS011;30790;52.030;7.110;2023-02-03T03:14:51;1.27;;;0.95;;
41653;SDS011;30790;52.030;7.110;2023-02-03T03:17:28;0.98;;;0.80;;
41653;SDS011;30790;52.030;7.110;2023-02-03T03:19:56;1.58;;;0.88;;
41653;SDS011;30790;52.030;7.110;2023-02-03T03:22:33;0.77;;;0.77;;
41653;SDS011;30790;52.030;7.110;2023-02-03T03:25:05;1.50;;;0.80;;
41653;SDS011;30790;52.030;7.110;2023-02-03T03:27:38;2.10;;;1.00;;
41653;SDS011;30790;52.030;7.110;2023-02-03T03:32:34;1.50;;;0.85;;
41653;SDS011;30790;52.030;7.110;2023-02-03T03:35:00;0.85;;;0.85;;
41653;SDS011;30790;52.030;7.110;2023-02-03T03:37:30;0.77;;;0.77;;
41653;SDS011;30790;52.030;7.110;2023-02-03T03:40:00;1.73;;;1.23;;
41653;SDS011;30790;52.030;7.110;2023-02-03T03:48:06;1.10;;;0.80;;
41653;SDS011;30790;52.030;7.110;2023-02-03T03:50:40;1.30;;;0.82;;
41653;SDS011;30790;52.030;7.110;2023-02-03T03:53:10;1.13;;;0.90;;
41653;SDS011;30790;52.030;7.110;2023-02-03T03:55:39;1.23;;;0.85;;
41653;SDS011;30790;52.030;7.110;2023-02-03T03:58:08;1.83;;;1.00;;
41653;SDS011;30790;52.030;7.110;2023-02-03T04:00:37;3.28;;;1.33;;
41653;SDS011;30790;52.030;7.110;2023-02-03T04:03:06;1.65;;;1.15;;
41653;SDS011;30790;52.030;7.110;2023-02-03T04:05:47;1.20;;;0.70;;
41653;SDS011;30790;52.030;7.110;2023-02-03T04:08:12;1.92;;;0.80;;
41653;SDS011;30790;52.030;7.110;2023-02-03T04:10:38;1.58;;;0.90;;
41653;SDS011;30790;52.030;7.110;2023-02-03T04:13:05;1.30;;;0.90;;
41653;SDS011;30790;52.030;7.110;2023-02-03T04:15:32;1.25;;;1.00;;
41653;SDS011;30790;52.030;7.110;2023-02-03T04:17:58;1.45;;;0.77;;
41653;SDS011;30790;52.030;7.110;2023-02-03T04:20:25;2.95;;;1.00;;
41653;SDS011;30790;52.030;7.110;2023-02-03T04:22:54;1.02;;;0.70;;
41653;SDS011;30790;52.030;7.110;2023-02-03T04:25:20;1.10;;;0.82;;
41653;SDS011;30790;52.030;7.110;2023-02-03T04:27:46;1.98;;;0.98;;
41653;SDS011;30790;52.030;7.110;2023-02-03T04:30:11;2.25;;;0.88;;
41653;SDS011;30790;52.030;7.110;2023-02-03T04:32:37;1.13;;;0.73;;
41653;SDS011;30790;52.030;7.110;2023-02-03T04:35:03;1.50;;;0.70;;
41653;SDS011;30790;52.030;7.110;2023-02-03T04:37:30;1.52;;;0.75;;
41653;SDS011;30790;52.030;7.110;2023-02-03T04:39:55;2.00;;;1.05;;
41653;SDS011;30790;52.030;7.110;2023-02-03T04:42:21;2.85;;;0.80;;
41653;SDS011;30790;52.030;7.110;2023-02-03T04:44:47;1.02;;;0.70;;
41653;SDS011;30790;52.030;7.110;2023-02-03T04:47:12;0.60;;;0.60;;
41653;SDS011;30790;52.030;7.110;2023-02-03T04:49:38;1.00;;;0.80;;
41653;SDS011;30790;52.030;7.110;2023-02-03T04:52:03;1.70;;;1.02;;
41653;SDS011;30790;52.030;7.110;2023-02-03T04:54:29;1.13;;;0.75;;
41653;SDS011;30790;52.030;7.110;2023-02-03T04:56:54;1.00;;;0.80;;
41653;SDS011;30790;52.030;7.110;2023-02-03T04:59:19;1.35;;;0.80;;
41653;SDS011;30790;52.030;7.110;2023-02-03T05:01:44;1.02;;;0.88;;
41653;SDS011;30790;52.030;7.110;2023-02-03T05:04:10;2.05;;;0.80;;
41653;SDS011;30790;52.030;7.110;2023-02-03T05:06:35;1.42;;;0.70;;
41653;SDS011;30790;52.030;7.110;2023-02-03T05:09:00;2.50;;;0.90;;
41653;SDS011;30790;52.030;7.110;2023-02-03T05:11:26;1.00;;;0.90;;
41653;SDS011;30790;52.030;7.110;2023-02-03T05:13:52;2.08;;;0.80;;
41653;SDS011;30790;52.030;7.110;2023-02-03T05:16:18;2.05;;;0.70;;
41653;SDS011;30790;52.030;7.110;2023-02-03T05:18:43;2.60;;;1.15;;
41653;SDS011;30790;52.030;7.110;2023-02-03T05:21:08;1.77;;;0.88;;
41653;SDS011;30790;52.030;7.110;2023-02-03T05:23:34;0.65;;;0.63;;
41653;SDS011;30790;52.030;7.110;2023-02-03T05:25:59;2.95;;;0.90;;
41653;SDS011;30790;52.030;7.110;2023-02-03T05:28:24;1.60;;;0.88;;
41653;SDS011;30790;52.030;7.110;2023-02-03T05:30:50;1.65;;;0.70;;
41653;SDS011;30790;52.030;7.110;2023-02-03T05:33:15;2.95;;;0.98;;
41653;SDS011;30790;52.030;7.110;2023-02-03T05:35:41;0.95;;;0.63;;
41653;SDS011;30790;52.030;7.110;2023-02-03T05:38:06;1.40;;;0.80;;
41653;SDS011;30790;52.030;7.110;2023-02-03T05:40:31;1.98;;;0.85;;
41653;SDS011;30790;52.030;7.110;2023-02-03T05:43:15;1.13;;;0.70;;
41653;SDS011;30790;52.030;7.110;2023-02-03T05:45:41;1.08;;;0.60;;
41653;SDS011;30790;52.030;7.110;2023-02-03T05:48:06;1.45;;;0.70;;
41653;SDS011;30790;52.030;7.110;2023-02-03T05:50:31;0.88;;;0.50;;
41653;SDS011;30790;52.030;7.110;2023-02-03T05:52:58;1.42;;;0.95;;
41653;SDS011;30790;52.030;7.110;2023-02-03T05:55:25;1.52;;;0.68;;
41653;SDS011;30790;52.030;7.110;2023-02-03T05:57:50;0.60;;;0.60;;
41653;SDS011;30790;52.030;7.110;2023-02-03T06:00:16;1.20;;;0.85;;
41653;SDS011;30790;52.030;7.110;2023-02-03T06:02:41;0.75;;;0.75;;
41653;SDS011;30790;52.030;7.110;2023-02-03T06:05:07;0.50;;;0.50;;
41653;SDS011;30790;52.030;7.110;2023-02-03T06:07:32;2.03;;;1.15;;
41653;SDS011;30790;52.030;7.110;2023-02-03T06:09:57;2.17;;;1.00;;
41653;SDS011;30790;52.030;7.110;2023-02-03T06:12:22;0.90;;;0.60;;
41653;SDS011;30790;52.030;7.110;2023-02-03T06:14:48;2.08;;;0.65;;
41653;SDS011;30790;52.030;7.110;2023-02-03T06:17:13;0.93;;;0.75;;
41653;SDS011;30790;52.030;7.110;2023-02-03T06:19:38;1.43;;;0.77;;
41653;SDS011;30790;52.030;7.110;2023-02-03T06:22:03;0.70;;;0.65;;
41653;SDS011;30790;52.030;7.110;2023-02-03T06:24:29;1.87;;;1.00;;
41653;SDS011;30790;52.030;7.110;2023-02-03T06:26:54;1.65;;;0.80;;
41653;SDS011;30790;52.030;7.110;2023-02-03T06:29:19;2.78;;;0.75;;
41653;SDS011;30790;52.030;7.110;2023-02-03T06:31:45;10.15;;;1.20;;
41653;SDS011;30790;52.030;7.110;2023-02-03T06:34:10;3.33;;;1.00;;
41653;SDS011;30790;52.030;7.110;2023-02-03T06:36:35;1.27;;;0.82;;
41653;SDS011;30790;52.030;7.110;2023-02-03T06:39:00;3.05;;;1.00;;
41653;SDS011;30790;52.030;7.110;2023-02-03T06:41:26;3.03;;;0.80;;
41653;SDS011;30790;52.030;7.110;2023-02-03T06:43:54;7.22;;;1.10;;
41653;SDS011;30790;52.030;7.110;2023-02-03T06:46:19;4.65;;;1.25;;
41653;SDS011;30790;52.030;7.110;2023-02-03T06:48:45;2.42;;;1.02;;
41653;SDS011;30790;52.030;7.110;2023-02-03T06:51:10;4.32;;;0.82;;
41653;SDS011;30790;52.030;7.110;2023-02-03T06:53:35;2.45;;;1.02;;
41653;SDS011;30790;52.030;7.110;2023-02-03T06:56:00;1.88;;;1.02;;
41653;SDS011;30790;52.030;7.110;2023-02-03T06:58:27;6.10;;;1.30;;
41653;SDS011;30790;52.030;7.110;2023-02-03T07:00:56;4.35;;;0.80;;
41653;SDS011;30790;52.030;7.110;2023-02-03T07:03:21;3.20;;;1.15;;
41653;SDS011;30790;52.030;7.110;2023-02-03T07:05:46;3.25;;;1.08;;
41653;SDS011;30790;52.030;7.110;2023-02-03T07:08:12;6.25;;;1.10;;
41653;SDS011;30790;52.030;7.110;2023-02-03T07:10:37;8.30;;;1.25;;
41653;SDS011;30790;52.030;7.110;2023-02-03T07:13:03;4.05;;;1.52;;
41653;SDS011;30790;52.030;7.110;2023-02-03T07:15:30;5.38;;;1.00;;
41653;SDS011;30790;52.030;7.110;2023-02-03T07:17:55;8.95;;;0.88;;
41653;SDS011;30790;52.030;7.110;2023-02-03T07:20:21;5.00;;;1.00;;
41653;SDS011;30790;52.030;7.110;2023-02-03T07:22:51;5.75;;;1.42;;
41653;SDS011;30790;52.030;7.110;2023-02-03T07:25:18;2.88;;;0.88;;
41653;SDS011;30790;52.030;7.110;2023-02-03T07:27:43;3.10;;;1.55;;
41653;SDS011;30790;52.030;7.110;2023-02-03T07:30:08;4.22;;;1.15;;
41653;SDS011;30790;52.030;7.110;2023-02-03T07:32:34;5.30;;;1.00;;
41653;SDS011;30790;52.030;7.110;2023-02-03T07:34:59;6.73;;;1.27;;
41653;SDS011;30790;52.030;7.110;2023-02-03T07:37:25;2.92;;;1.10;;
41653;SDS011;30790;52.030;7.110;2023-02-03T07:39:50;3.50;;;1.15;;
41653;SDS011;30790;52.030;7.110;2023-02-03T07:42:16;7.63;;;1.20;;
41653;SDS011;30790;52.030;7.110;2023-02-03T07:44:41;6.43;;;1.48;;
41653;SDS011;30790;52.030;7.110;2023-02-03T07:47:06;4.67;;;1.20;;
41653;SDS011;30790;52.030;7.110;2023-02-03T07:49:31;7.47;;;1.13;;
41653;SDS011;30790;52.030;7.110;2023-02-03T07:51:57;5.45;;;1.08;;
41653;SDS011;30790;52.030;7.110;2023-02-03T07:54:22;6.80;;;1.47;;
41653;SDS011;30790;52.030;7.110;2023-02-03T07:56:47;5.53;;;1.65;;
41653;SDS011;30790;52.030;7.110;2023-02-03T07:59:12;4.85;;;1.10;;
41653;SDS011;30790;52.030;7.110;2023-02-03T08:01:38;13.98;;;1.75;;
41653;SDS011;30790;52.030;7.110;2023-02-03T08:04:03;5.23;;;1.33;;
41653;SDS011;30790;52.030;7.110;2023-02-03T08:06:29;9.07;;;1.10;;
41653;SDS011;30790;52.030;7.110;2023-02-03T08:08:54;10.05;;;1.45;;
41653;SDS011;30790;52.030;7.110;2023-02-03T08:11:20;10.88;;;1.83;;
41653;SDS011;30790;52.030;7.110;2023-02-03T08:13:45;6.93;;;1.23;;
41653;SDS011;30790;52.030;7.110;2023-02-03T08:16:10;8.30;;;1.63;;
41653;SDS011;30790;52.030;7.110;2023-02-03T08:18:36;10.00;;;1.30;;
41653;SDS011;30790;52.030;7.110;2023-02-03T08:21:01;6.90;;;1.50;;
41653;SDS011;30790;52.030;7.110;2023-02-03T08:23:28;4.05;;;1.27;;
41653;SDS011;30790;52.030;7.110;2023-02-03T08:25:54;9.65;;;1.65;;
41653;SDS011;30790;52.030;7.110;2023-02-03T08:28:19;3.70;;;1.60;;
41653;SDS011;30790;52.030;7.110;2023-02-03T08:30:45;3.83;;;1.55;;
41653;SDS011;30790;52.030;7.110;2023-02-03T08:33:10;2.67;;;0.93;;
41653;SDS011;30790;52.030;7.110;2023-02-03T08:35:35;5.72;;;1.20;;
41653;SDS011;30790;52.030;7.110;2023-02-03T08:38:01;5.22;;;1.10;;
41653;SDS011;30790;52.030;7.110;2023-02-03T08:40:26;6.63;;;1.20;;
41653;SDS011;30790;52.030;7.110;2023-02-03T08:42:51;8.18;;;1.02;;
41653;SDS011;30790;52.030;7.110;2023-02-03T08:45:17;4.55;;;0.93;;
41653;SDS011;30790;52.030;7.110;2023-02-03T08:47:42;8.15;;;1.00;;
41653;SDS011;30790;52.030;7.110;2023-02-03T08:50:08;4.38;;;1.40;;
41653;SDS011;30790;52.030;7.110;2023-02-03T08:52:34;2.83;;;1.00;;
41653;SDS011;30790;52.030;7.110;2023-02-03T08:54:59;6.28;;;1.40;;
41653;SDS011;30790;52.030;7.110;2023-02-03T08:57:24;5.22;;;1.10;;
41653;SDS011;30790;52.030;7.110;2023-02-03T08:59:49;3.45;;;1.40;;
41653;SDS011;30790;52.030;7.110;2023-02-03T09:02:16;6.00;;;1.45;;
41653;SDS011;30790;52.030;7.110;2023-02-03T09:04:43;6.05;;;1.20;;
41653;SDS011;30790;52.030;7.110;2023-02-03T09:07:08;4.43;;;0.70;;
41653;SDS011;30790;52.030;7.110;2023-02-03T09:09:35;6.07;;;1.02;;
41653;SDS011;30790;52.030;7.110;2023-02-03T09:12:00;4.30;;;1.00;;
41653;SDS011;30790;52.030;7.110;2023-02-03T09:14:29;3.67;;;1.00;;
41653;SDS011;30790;52.030;7.110;2023-02-03T09:16:56;3.08;;;1.05;;
41653;SDS011;30790;52.030;7.110;2023-02-03T09:19:22;2.83;;;1.10;;
41653;SDS011;30790;52.030;7.110;2023-02-03T09:21:47;4.70;;;1.30;;
41653;SDS011;30790;52.030;7.110;2023-02-03T09:24:13;5.57;;;1.35;;
41653;SDS011;30790;52.030;7.110;2023-02-03T09:26:39;4.03;;;0.98;;
41653;SDS011;30790;52.030;7.110;2023-02-03T09:29:04;6.47;;;1.40;;
41653;SDS011;30790;52.030;7.110;2023-02-03T09:31:31;7.13;;;1.40;;
41653;SDS011;30790;52.030;7.110;2023-02-03T09:33:58;4.65;;;0.98;;
41653;SDS011;30790;52.030;7.110;2023-02-03T09:36:24;5.20;;;1.10;;
41653;SDS011;30790;52.030;7.110;2023-02-03T09:38:49;3.22;;;1.10;;
41653;SDS011;30790;52.030;7.110;2023-02-03T09:47:08;6.15;;;1.30;;
41653;SDS011;30790;52.030;7.110;2023-02-03T09:49:44;3.25;;;1.30;;
41653;SDS011;30790;52.030;7.110;2023-02-03T09:52:16;4.65;;;1.00;;
41653;SDS011;30790;52.030;7.110;2023-02-03T09:54:49;9.27;;;1.10;;
41653;SDS011;30790;52.030;7.110;2023-02-03T09:57:24;6.95;;;1.27;;
41653;SDS011;30790;52.030;7.110;2023-02-03T09:59:51;5.70;;;1.33;;
41653;SDS011;30790;52.030;7.110;2023-02-03T10:02:31;4.40;;;1.13;;
41653;SDS011;30790;52.030;7.110;2023-02-03T10:05:19;5.20;;;1.00;;
41653;SDS011;30790;52.030;7.110;2023-02-03T10:07:55;1.85;;;0.90;;
41653;SDS011;30790;52.030;7.110;2023-02-03T10:10:35;3.50;;;1.58;;
41653;SDS011;30790;52.030;7.110;2023-02-03T10:13:12;9.00;;;1.40;;
41653;SDS011;30790;52.030;7.110;2023-02-03T10:15:51;6.28;;;1.48;;
41653;SDS011;30790;52.030;7.110;2023-02-03T10:18:24;5.93;;;1.20;;
41653;SDS011;30790;52.030;7.110;2023-02-03T10:20:54;5.20;;;1.00;;
41653;SDS011;30790;52.030;7.110;2023-02-03T10:23:32;5.32;;;1.15;;
41653;SDS011;30790;52.030;7.110;2023-02-03T10:26:01;1.85;;;0.90;;
41653;SDS011;30790;52.030;7.110;2023-02-03T10:28:30;4.55;;;0.95;;
41653;SDS011;30790;52.030;7.110;2023-02-03T10:31:02;10.32;;;2.05;;
41653;SDS011;30790;52.030;7.110;2023-02-03T10:33:37;4.63;;;1.20;;
41653;SDS011;30790;52.030;7.110;2023-02-03T10:41:20;5.40;;;1.55;;
41653;SDS011;30790;52.030;7.110;2023-02-03T10:43:46;4.82;;;0.95;;
41653;SDS011;30790;52.030;7.110;2023-02-03T10:48:52;5.97;;;1.23;;
41653;SDS011;30790;52.030;7.110;2023-02-03T10:51:21;4.85;;;1.15;;
41653;SDS011;30790;52.030;7.110;2023-02-03T10:53:55;5.00;;;1.20;;
41653;SDS011;30790;52.030;7.110;2023-02-03T10:56:25;3.75;;;1.00;;
41653;SDS011;30790;52.030;7.110;2023-02-03T10:58:55;2.03;;;0.85;;
41653;SDS011;30790;52.030;7.110;2023-02-03T11:01:37;6.30;;;1.10;;
41653;SDS011;30790;52.030;7.110;2023-02-03T11:04:06;1.75;;;0.98;;
41653;SDS011;30790;52.030;7.110;2023-02-03T11:07:00;2.88;;;1.17;;
41653;SDS011;30790;52.030;7.110;2023-02-03T11:09:31;6.22;;;1.02;;
41653;SDS011;30790;52.030;7.110;2023-02-03T11:12:14;3.17;;;0.97;;
41653;SDS011;30790;52.030;7.110;2023-02-03T11:14:44;3.75;;;0.70;;
41653;SDS011;30790;52.030;7.110;2023-02-03T11:17:18;5.03;;;1.20;;
41653;SDS011;30790;52.030;7.110;2023-02-03T11:19:48;2.65;;;0.90;;
41653;SDS011;30790;52.030;7.110;2023-02-03T11:25:16;7.68;;;0.80;;
41653;SDS011;30790;52.030;7.110;2023-02-03T11:27:44;5.70;;;1.40;;
41653;SDS011;30790;52.030;7.110;2023-02-03T11:30:16;5.32;;;1.42;;
41653;SDS011;30790;52.030;7.110;2023-02-03T11:32:49;4.07;;;0.98;;
41653;SDS011;30790;52.030;7.110;2023-02-03T11:35:16;3.50;;;1.30;;
41653;SDS011;30790;52.030;7.110;2023-02-03T11:37:47;4.50;;;0.95;;
41653;SDS011;30790;52.030;7.110;2023-02-03T11:42:42;4.55;;;0.95;;
41653;SDS011;30790;52.030;7.110;2023-02-03T11:45:27;7.47;;;1.15;;
41653;SDS011;30790;52.030;7.110;2023-02-03T11:47:55;3.92;;;1.20;;
41653;SDS011;30790;52.030;7.110;2023-02-03T11:53:00;6.22;;;1.20;;
41653;SDS011;30790;52.030;7.110;2023-02-03T11:56:01;4.63;;;0.90;;
41653;SDS011;30790;52.030;7.110;2023-02-03T11:58:35;6.07;;;1.27;;
41653;SDS011;30790;52.030;7.110;2023-02-03T12:09:40;3.85;;;1.00;;
41653;SDS011;30790;52.030;7.110;2023-02-03T12:15:14;3.20;;;1.15;;
41653;SDS011;30790;52.030;7.110;2023-02-03T12:21:20;6.22;;;1.73;;
41653;SDS011;30790;52.030;7.110;2023-02-03T12:24:18;4.43;;;1.30;;
41653;SDS011;30790;52.030;7.110;2023-02-03T12:27:08;5.65;;;1.15;;
41653;SDS011;30790;52.030;7.110;2023-02-03T12:29:38;7.47;;;1.27;;
41653;SDS011;30790;52.030;7.110;2023-02-03T12:34:57;5.40;;;1.17;;
41653;SDS011;30790;52.030;7.110;2023-02-03T12:37:31;5.63;;;1.38;;
41653;SDS011;30790;52.030;7.110;2023-02-03T12:40:12;9.73;;;1.23;;
41653;SDS011;30790;52.030;7.110;2023-02-03T12:42:52;13.48;;;1.20;;
41653;SDS011;30790;52.030;7.110;2023-02-03T12:45:23;5.25;;;1.33;;
41653;SDS011;30790;52.030;7.110;2023-02-03T12:50:37;5.88;;;1.00;;
41653;SDS011;30790;52.030;7.110;2023-02-03T12:53:10;5.00;;;1.30;;
41653;SDS011;30790;52.030;7.110;2023-02-03T12:55:42;3.05;;;1.20;;
41653;SDS011;30790;52.030;7.110;2023-02-03T12:58:24;5.57;;;1.70;;
41653;SDS011;30790;52.030;7.110;2023-02-03T13:06:21;4.13;;;1.17;;
41653;SDS011;30790;52.030;7.110;2023-02-03T13:09:00;5.35;;;1.42;;
41653;SDS011;30790;52.030;7.110;2023-02-03T13:11:37;3.20;;;1.10;;
41653;SDS011;30790;52.030;7.110;2023-02-03T13:14:54;4.80;;;1.17;;
41653;SDS011;30790;52.030;7.110;2023-02-03T13:17:13;6.53;;;1.27;;
41653;SDS011;30790;52.030;7.110;2023-02-03T13:20:02;5.50;;;1.27;;
41653;SDS011;30790;52.030;7.110;2023-02-03T13:22:30;4.88;;;1.25;;
41653;SDS011;30790;52.030;7.110;2023-02-03T13:25:08;3.80;;;0.90;;
41653;SDS011;30790;52.030;7.110;2023-02-03T13:30:27;3.35;;;1.40;;
41653;SDS011;30790;52.030;7.110;2023-02-03T13:41:19;11.27;;;2.20;;
41653;SDS011;30790;52.030;7.110;2023-02-03T13:43:54;7.25;;;1.92;;
41653;SDS011;30790;52.030;7.110;2023-02-03T13:46:23;8.38;;;1.75;;
41653;SDS011;30790;52.030;7.110;2023-02-03T13:48:55;7.18;;;1.55;;
41653;SDS011;30790;52.030;7.110;2023-02-03T13:51:29;9.02;;;2.80;;
41653;SDS011;30790;52.030;7.110;2023-02-03T13:54:11;14.02;;;1.52;;
41653;SDS011;30790;52.030;7.110;2023-02-03T13:57:05;5.30;;;1.33;;
41653;SDS011;30790;52.030;7.110;2023-02-03T13:59:45;6.30;;;1.67;;
41653;SDS011;30790;52.030;7.110;2023-02-03T14:15:17;12.68;;;2.15;;
41653;SDS011;30790;52.030;7.110;2023-02-03T14:22:58;8.45;;;2.05;;
41653;SDS011;30790;52.030;7.110;2023-02-03T14:25:29;6.25;;;1.50;;
41653;SDS011;30790;52.030;7.110;2023-02-03T14:28:13;12.90;;;1.65;;
41653;SDS011;30790;52.030;7.110;2023-02-03T14:33:44;9.23;;;2.35;;
41653;SDS011;30790;52.030;7.110;2023-02-03T14:36:28;3.65;;;1.27;;
41653;SDS011;30790;52.030;7.110;2023-02-03T14:38:56;6.25;;;1.95;;
41653;SDS011;30790;52.030;7.110;2023-02-03T14:41:49;15.00;;;2.45;;
41653;SDS011;30790;52.030;7.110;2023-02-03T14:44:36;20.35;;;3.17;;
41653;SDS011;30790;52.030;7.110;2023-02-03T14:47:14;23.52;;;3.75;;
41653;SDS011;30790;52.030;7.110;2023-02-03T14:49:57;25.15;;;2.92;;
41653;SDS011;30790;52.030;7.110;2023-02-03T14:52:37;21.98;;;3.50;;
41653;SDS011;30790;52.030;7.110;2023-02-03T14:58:14;19.48;;;3.17;;
41653;SDS011;30790;52.030;7.110;2023-02-03T15:00:47;23.73;;;3.72;;
41653;SDS011;30790;52.030;7.110;2023-02-03T15:03:15;12.57;;;2.80;;
41653;SDS011;30790;52.030;7.110;2023-02-03T15:05:47;17.15;;;2.90;;
41653;SDS011;30790;52.030;7.110;2023-02-03T15:08:34;15.15;;;2.90;;
41653;SDS011;30790;52.030;7.110;2023-02-03T15:11:14;20.88;;;3.72;;
41653;SDS011;30790;52.030;7.110;2023-02-03T15:13:48;13.43;;;2.50;;
41653;SDS011;30790;52.030;7.110;2023-02-03T15:16:15;33.92;;;3.67;;
41653;SDS011;30790;52.030;7.110;2023-02-03T15:18:44;16.85;;;2.80;;
41653;SDS011;30790;52.030;7.110;2023-02-03T15:21:16;18.63;;;3.25;;
41653;SDS011;30790;52.030;7.110;2023-02-03T15:23:44;20.77;;;3.28;;
41653;SDS011;30790;52.030;7.110;2023-02-03T15:26:17;16.33;;;3.67;;
41653;SDS011;30790;52.030;7.110;2023-02-03T15:28:52;22.63;;;3.08;;
41653;SDS011;30790;52.030;7.110;2023-02-03T15:31:39;14.85;;;3.13;;
41653;SDS011;30790;52.030;7.110;2023-02-03T15:37:01;18.35;;;2.60;;
41653;SDS011;30790;52.030;7.110;2023-02-03T15:42:16;13.32;;;2.88;;
41653;SDS011;30790;52.030;7.110;2023-02-03T15:44:49;14.82;;;3.10;;
41653;SDS011;30790;52.030;7.110;2023-02-03T15:47:24;11.15;;;2.65;;
41653;SDS011;30790;52.030;7.110;2023-02-03T15:50:01;10.75;;;2.33;;
41653;SDS011;30790;52.030;7.110;2023-02-03T15:52:47;10.13;;;2.22;;
41653;SDS011;30790;52.030;7.110;2023-02-03T15:55:16;10.15;;;2.28;;
41653;SDS011;30790;52.030;7.110;2023-02-03T15:57:44;14.48;;;2.92;;
41653;SDS011;30790;52.030;7.110;2023-02-03T16:00:26;7.13;;;1.88;;
41653;SDS011;30790;52.030;7.110;2023-02-03T16:02:55;13.27;;;3.22;;
41653;SDS011;30790;52.030;7.110;2023-02-03T16:05:24;16.13;;;2.63;;
41653;SDS011;30790;52.030;7.110;2023-02-03T16:08:31;19.48;;;3.17;;
41653;SDS011;30790;52.030;7.110;2023-02-03T16:13:54;13.23;;;2.45;;
41653;SDS011;30790;52.030;7.110;2023-02-03T16:16:22;14.93;;;2.85;;
41653;SDS011;30790;52.030;7.110;2023-02-03T16:18:55;18.45;;;3.50;;
41653;SDS011;30790;52.030;7.110;2023-02-03T16:23:51;12.40;;;3.10;;
41653;SDS011;30790;52.030;7.110;2023-02-03T16:26:17;17.65;;;3.20;;
41653;SDS011;30790;52.030;7.110;2023-02-03T16:28:54;21.48;;;3.53;;
41653;SDS011;30790;52.030;7.110;2023-02-03T16:31:41;11.80;;;3.10;;
41653;SDS011;30790;52.030;7.110;2023-02-03T16:34:28;15.07;;;3.03;;
41653;SDS011;30790;52.030;7.110;2023-02-03T16:37:15;15.27;;;3.97;;
41653;SDS011;30790;52.030;7.110;2023-02-03T16:40:05;12.45;;;2.83;;
41653;SDS011;30790;52.030;7.110;2023-02-03T16:42:50;12.60;;;3.00;;
41653;SDS011;30790;52.030;7.110;2023-02-03T16:45:34;16.08;;;3.63;;
41653;SDS011;30790;52.030;7.110;2023-02-03T16:48:18;16.75;;;3.97;;
41653;SDS011;30790;52.030;7.110;2023-02-03T16:51:08;15.60;;;3.03;;
41653;SDS011;30790;52.030;7.110;2023-02-03T16:53:37;15.32;;;3.15;;
41653;SDS011;30790;52.030;7.110;2023-02-03T16:56:03;13.23;;;3.45;;
41653;SDS011;30790;52.030;7.110;2023-02-03T16:58:28;17.65;;;3.05;;
41653;SDS011;30790;52.030;7.110;2023-02-03T17:00:56;22.35;;;3.60;;
41653;SDS011;30790;52.030;7.110;2023-02-03T17:03:24;11.93;;;3.22;;
41653;SDS011;30790;52.030;7.110;2023-02-03T17:05:52;16.40;;;2.85;;